sensor_id;sensor_type;location;lat;lon;timestamp;temperature;humidity
33580;DHT22;19909;43.644;-79.438;2022-08-21T00:00:18;22.20;52.30
33580;DHT22;19909;43.644;-79.438;2022-08-21T00:03:03;22.20;52.30
33580;DHT22;19909;43.644;-79.438;2022-08-21T00:05:32;22.10;52.40
33580;DHT22;19909;43.644;-79.438;2022-08-21T00:07:59;22.10;52.30
33580;DHT22;19909;43.644;-79.438;2022-08-21T00:10:26;22.10;52.50
33580;DHT22;19909;43.644;-79.438;2022-08-21T00:12:52;22.20;52.30
33580;DHT22;19909;43.644;-79.438;2022-08-21T00:15:23;22.20;52.30
33580;DHT22;19909;43.644;-79.438;2022-08-21T00:17:50;22.20;52.30
33580;DHT22;19909;43.644;-79.438;2022-08-21T00:20:17;22.20;52.30
33580;DHT22;19909;43.644;-79.438;2022-08-21T00:22:43;22.20;52.30
33580;DHT22;19909;43.644;-79.438;2022-08-21T00:25:10;22.20;52.30
33580;DHT22;19909;43.644;-79.438;2022-08-21T00:27:37;22.20;52.30
33580;DHT22;19909;43.644;-79.438;2022-08-21T00:30:06;22.20;52.30
33580;DHT22;19909;43.644;-79.438;2022-08-21T00:32:33;22.10;52.30
33580;DHT22;19909;43.644;-79.438;2022-08-21T00:34:59;22.20;52.40
33580;DHT22;19909;43.644;-79.438;2022-08-21T00:37:26;22.20;52.30
33580;DHT22;19909;43.644;-79.438;2022-08-21T00:39:52;22.20;52.30
33580;DHT22;19909;43.644;-79.438;2022-08-21T00:42:19;22.20;52.30
33580;DHT22;19909;43.644;-79.438;2022-08-21T00:44:48;22.20;52.40
33580;DHT22;19909;43.644;-79.438;2022-08-21T00:47:18;22.20;52.30
33580;DHT22;19909;43.644;-79.438;2022-08-21T00:49:44;22.20;52.30
33580;DHT22;19909;43.644;-79.438;2022-08-21T00:52:14;22.20;52.30
33580;DHT22;19909;43.644;-79.438;2022-08-21T00:54:42;22.20;52.30
33580;DHT22;19909;43.644;-79.438;2022-08-21T00:57:16;22.20;52.30
33580;DHT22;19909;43.644;-79.438;2022-08-21T00:59:46;22.20;52.30
33580;DHT22;19909;43.644;-79.438;2022-08-21T01:02:13;22.20;52.30
33580;DHT22;19909;43.644;-79.438;2022-08-21T01:04:40;22.20;52.30
33580;DHT22;19909;43.644;-79.438;2022-08-21T01:07:07;22.20;52.30
33580;DHT22;19909;43.644;-79.438;2022-08-21T01:09:33;22.20;52.30
33580;DHT22;19909;43.644;-79.438;2022-08-21T01:12:00;22.20;52.20
33580;DHT22;19909;43.644;-79.438;2022-08-21T01:14:27;22.10;52.20
33580;DHT22;19909;43.644;-79.438;2022-08-21T01:16:55;22.20;52.20
33580;DHT22;19909;43.644;-79.438;2022-08-21T01:19:23;22.20;52.30
33580;DHT22;19909;43.644;-79.438;2022-08-21T01:21:49;22.10;52.20
33580;DHT22;19909;43.644;-79.438;2022-08-21T01:24:16;22.20;52.20
33580;DHT22;19909;43.644;-79.438;2022-08-21T01:26:43;22.20;52.30
33580;DHT22;19909;43.644;-79.438;2022-08-21T01:31:42;22.20;52.30
33580;DHT22;19909;43.644;-79.438;2022-08-21T01:34:09;22.20;52.30
33580;DHT22;19909;43.644;-79.438;2022-08-21T01:36:36;22.20;52.20
33580;DHT22;19909;43.644;-79.438;2022-08-21T01:39:04;22.20;52.20
33580;DHT22;19909;43.644;-79.438;2022-08-21T01:41:30;22.20;52.20
33580;DHT22;19909;43.644;-79.438;2022-08-21T01:43:57;22.20;52.20
33580;DHT22;19909;43.644;-79.438;2022-08-21T01:46:23;22.20;52.20
33580;DHT22;19909;43.644;-79.438;2022-08-21T01:48:49;22.20;52.80
33580;DHT22;19909;43.644;-79.438;2022-08-21T01:51:15;22.20;52.20
33580;DHT22;19909;43.644;-79.438;2022-08-21T01:53:42;22.20;52.20
33580;DHT22;19909;43.644;-79.438;2022-08-21T01:56:10;22.20;52.10
33580;DHT22;19909;43.644;-79.438;2022-08-21T01:58:37;22.20;52.10
33580;DHT22;19909;43.644;-79.438;2022-08-21T02:01:03;22.20;52.10
33580;DHT22;19909;43.644;-79.438;2022-08-21T02:03:30;22.20;52.20
33580;DHT22;19909;43.644;-79.438;2022-08-21T02:05:56;22.10;52.10
33580;DHT22;19909;43.644;-79.438;2022-08-21T02:08:23;22.20;52.10
33580;DHT22;19909;43.644;-79.438;2022-08-21T02:10:51;22.20;52.20
33580;DHT22;19909;43.644;-79.438;2022-08-21T02:13:18;22.20;52.20
33580;DHT22;19909;43.644;-79.438;2022-08-21T02:15:44;22.20;52.10
33580;DHT22;19909;43.644;-79.438;2022-08-21T02:18:11;22.20;52.10
33580;DHT22;19909;43.644;-79.438;2022-08-21T02:20:41;22.20;52.10
33580;DHT22;19909;43.644;-79.438;2022-08-21T02:23:09;22.20;52.10
33580;DHT22;19909;43.644;-79.438;2022-08-21T02:25:36;22.20;52.10
33580;DHT22;19909;43.644;-79.438;2022-08-21T02:28:05;22.20;52.10
33580;DHT22;19909;43.644;-79.438;2022-08-21T02:30:35;22.20;52.10
33580;DHT22;19909;43.644;-79.438;2022-08-21T02:33:04;22.20;52.10
33580;DHT22;19909;43.644;-79.438;2022-08-21T02:35:30;22.20;52.10
33580;DHT22;19909;43.644;-79.438;2022-08-21T02:38:00;22.10;52.10
33580;DHT22;19909;43.644;-79.438;2022-08-21T02:40:31;22.20;52.10
33580;DHT22;19909;43.644;-79.438;2022-08-21T02:42:59;22.20;52.60
33580;DHT22;19909;43.644;-79.438;2022-08-21T02:45:26;22.20;52.30
33580;DHT22;19909;43.644;-79.438;2022-08-21T02:48:00;22.20;52.00
33580;DHT22;19909;43.644;-79.438;2022-08-21T02:50:30;22.20;52.00
33580;DHT22;19909;43.644;-79.438;2022-08-21T02:52:57;22.20;52.10
33580;DHT22;19909;43.644;-79.438;2022-08-21T02:55:26;22.20;52.10
33580;DHT22;19909;43.644;-79.438;2022-08-21T02:57:53;22.20;52.10
33580;DHT22;19909;43.644;-79.438;2022-08-21T03:00:21;22.20;52.10
33580;DHT22;19909;43.644;-79.438;2022-08-21T03:02:49;22.20;52.10
33580;DHT22;19909;43.644;-79.438;2022-08-21T03:05:19;22.10;52.10
33580;DHT22;19909;43.644;-79.438;2022-08-21T03:07:46;22.20;52.00
33580;DHT22;19909;43.644;-79.438;2022-08-21T03:10:14;22.10;52.00
33580;DHT22;19909;43.644;-79.438;2022-08-21T03:12:41;22.20;52.10
33580;DHT22;19909;43.644;-79.438;2022-08-21T03:15:11;22.20;52.10
33580;DHT22;19909;43.644;-79.438;2022-08-21T03:17:37;22.20;52.10
33580;DHT22;19909;43.644;-79.438;2022-08-21T03:20:06;22.20;52.00
33580;DHT22;19909;43.644;-79.438;2022-08-21T03:22:33;22.20;52.00
33580;DHT22;19909;43.644;-79.438;2022-08-21T03:25:00;22.20;52.10
33580;DHT22;19909;43.644;-79.438;2022-08-21T03:27:28;22.20;52.00
33580;DHT22;19909;43.644;-79.438;2022-08-21T03:29:55;22.20;52.00
33580;DHT22;19909;43.644;-79.438;2022-08-21T03:32:21;22.20;52.00
33580;DHT22;19909;43.644;-79.438;2022-08-21T03:34:47;22.20;52.00
33580;DHT22;19909;43.644;-79.438;2022-08-21T03:37:16;22.20;52.00
33580;DHT22;19909;43.644;-79.438;2022-08-21T03:39:44;22.20;52.00
33580;DHT22;19909;43.644;-79.438;2022-08-21T03:42:11;22.20;52.00
33580;DHT22;19909;43.644;-79.438;2022-08-21T03:44:38;22.10;52.00
33580;DHT22;19909;43.644;-79.438;2022-08-21T03:47:05;22.20;52.00
33580;DHT22;19909;43.644;-79.438;2022-08-21T03:49:31;22.20;52.00
33580;DHT22;19909;43.644;-79.438;2022-08-21T03:51:58;22.20;52.00
33580;DHT22;19909;43.644;-79.438;2022-08-21T03:54:25;22.20;52.00
33580;DHT22;19909;43.644;-79.438;2022-08-21T03:56:51;22.20;52.00
33580;DHT22;19909;43.644;-79.438;2022-08-21T03:59:18;22.20;52.00
33580;DHT22;19909;43.644;-79.438;2022-08-21T04:01:58;22.20;52.00
33580;DHT22;19909;43.644;-79.438;2022-08-21T04:04:26;22.20;52.00
33580;DHT22;19909;43.644;-79.438;2022-08-21T04:06:52;22.10;51.90
33580;DHT22;19909;43.644;-79.438;2022-08-21T04:09:19;22.20;52.00
33580;DHT22;19909;43.644;-79.438;2022-08-21T04:11:45;22.10;51.90
33580;DHT22;19909;43.644;-79.438;2022-08-21T04:14:13;22.20;52.00
33580;DHT22;19909;43.644;-79.438;2022-08-21T04:16:41;22.20;52.00
33580;DHT22;19909;43.644;-79.438;2022-08-21T04:19:08;22.10;51.90
33580;DHT22;19909;43.644;-79.438;2022-08-21T04:21:36;22.20;51.90
33580;DHT22;19909;43.644;-79.438;2022-08-21T04:24:05;22.20;51.90
33580;DHT22;19909;43.644;-79.438;2022-08-21T04:26:35;22.20;52.00
33580;DHT22;19909;43.644;-79.438;2022-08-21T04:29:02;22.20;51.90
33580;DHT22;19909;43.644;-79.438;2022-08-21T04:31:30;22.20;51.90
33580;DHT22;19909;43.644;-79.438;2022-08-21T04:33:56;22.20;51.90
33580;DHT22;19909;43.644;-79.438;2022-08-21T04:36:23;22.20;51.90
33580;DHT22;19909;43.644;-79.438;2022-08-21T04:38:49;22.20;51.90
33580;DHT22;19909;43.644;-79.438;2022-08-21T04:41:15;22.20;51.90
33580;DHT22;19909;43.644;-79.438;2022-08-21T04:43:42;22.10;51.90
33580;DHT22;19909;43.644;-79.438;2022-08-21T04:46:08;22.20;51.90
33580;DHT22;19909;43.644;-79.438;2022-08-21T04:48:35;22.20;51.80
33580;DHT22;19909;43.644;-79.438;2022-08-21T04:51:10;22.20;51.90
33580;DHT22;19909;43.644;-79.438;2022-08-21T04:53:58;22.20;51.90
33580;DHT22;19909;43.644;-79.438;2022-08-21T04:59:38;22.10;51.80
33580;DHT22;19909;43.644;-79.438;2022-08-21T05:02:07;22.20;51.90
33580;DHT22;19909;43.644;-79.438;2022-08-21T05:04:37;22.10;51.90
33580;DHT22;19909;43.644;-79.438;2022-08-21T05:07:07;22.10;51.90
33580;DHT22;19909;43.644;-79.438;2022-08-21T05:09:37;22.20;51.80
33580;DHT22;19909;43.644;-79.438;2022-08-21T05:12:04;22.10;51.80
33580;DHT22;19909;43.644;-79.438;2022-08-21T05:14:37;22.20;51.80
33580;DHT22;19909;43.644;-79.438;2022-08-21T05:17:03;22.20;51.80
33580;DHT22;19909;43.644;-79.438;2022-08-21T05:19:30;22.20;51.70
33580;DHT22;19909;43.644;-79.438;2022-08-21T05:21:56;22.10;51.70
33580;DHT22;19909;43.644;-79.438;2022-08-21T05:24:23;22.10;51.70
33580;DHT22;19909;43.644;-79.438;2022-08-21T05:26:50;22.10;51.70
33580;DHT22;19909;43.644;-79.438;2022-08-21T05:29:17;22.10;51.70
33580;DHT22;19909;43.644;-79.438;2022-08-21T05:31:44;22.10;51.70
33580;DHT22;19909;43.644;-79.438;2022-08-21T05:34:11;22.10;51.70
33580;DHT22;19909;43.644;-79.438;2022-08-21T05:36:37;22.10;51.70
33580;DHT22;19909;43.644;-79.438;2022-08-21T05:39:04;22.10;51.70
33580;DHT22;19909;43.644;-79.438;2022-08-21T05:41:30;22.10;51.70
33580;DHT22;19909;43.644;-79.438;2022-08-21T05:43:56;22.10;51.60
33580;DHT22;19909;43.644;-79.438;2022-08-21T05:46:22;22.10;51.70
33580;DHT22;19909;43.644;-79.438;2022-08-21T05:48:49;22.10;51.70
33580;DHT22;19909;43.644;-79.438;2022-08-21T05:51:15;22.10;51.70
33580;DHT22;19909;43.644;-79.438;2022-08-21T05:53:42;22.10;52.20
33580;DHT22;19909;43.644;-79.438;2022-08-21T05:56:09;22.10;51.70
33580;DHT22;19909;43.644;-79.438;2022-08-21T05:58:35;22.10;51.60
33580;DHT22;19909;43.644;-79.438;2022-08-21T06:01:03;22.10;51.70
33580;DHT22;19909;43.644;-79.438;2022-08-21T06:03:32;22.10;51.70
33580;DHT22;19909;43.644;-79.438;2022-08-21T06:06:00;22.10;51.70
33580;DHT22;19909;43.644;-79.438;2022-08-21T06:08:27;22.10;51.70
33580;DHT22;19909;43.644;-79.438;2022-08-21T06:10:55;22.10;51.70
33580;DHT22;19909;43.644;-79.438;2022-08-21T06:13:23;22.10;51.70
33580;DHT22;19909;43.644;-79.438;2022-08-21T06:15:59;22.10;51.70
33580;DHT22;19909;43.644;-79.438;2022-08-21T06:18:26;22.10;51.70
33580;DHT22;19909;43.644;-79.438;2022-08-21T06:20:52;22.10;51.70
33580;DHT22;19909;43.644;-79.438;2022-08-21T06:23:18;22.10;51.70
33580;DHT22;19909;43.644;-79.438;2022-08-21T06:25:44;22.10;51.70
33580;DHT22;19909;43.644;-79.438;2022-08-21T06:28:11;22.10;51.70
33580;DHT22;19909;43.644;-79.438;2022-08-21T06:30:39;22.10;51.60
33580;DHT22;19909;43.644;-79.438;2022-08-21T06:33:05;22.10;51.70
33580;DHT22;19909;43.644;-79.438;2022-08-21T06:35:32;22.10;51.70
33580;DHT22;19909;43.644;-79.438;2022-08-21T06:37:59;22.10;51.70
33580;DHT22;19909;43.644;-79.438;2022-08-21T06:40:27;22.10;51.60
33580;DHT22;19909;43.644;-79.438;2022-08-21T06:42:53;22.10;51.60
33580;DHT22;19909;43.644;-79.438;2022-08-21T06:45:20;22.10;51.60
33580;DHT22;19909;43.644;-79.438;2022-08-21T06:47:46;22.10;51.60
33580;DHT22;19909;43.644;-79.438;2022-08-21T06:50:12;22.10;51.60
33580;DHT22;19909;43.644;-79.438;2022-08-21T06:52:39;22.10;51.60
33580;DHT22;19909;43.644;-79.438;2022-08-21T06:55:07;22.10;51.60
33580;DHT22;19909;43.644;-79.438;2022-08-21T06:57:34;22.10;51.60
33580;DHT22;19909;43.644;-79.438;2022-08-21T07:00:02;22.10;51.60
33580;DHT22;19909;43.644;-79.438;2022-08-21T07:02:29;22.10;51.60
33580;DHT22;19909;43.644;-79.438;2022-08-21T07:04:55;22.10;51.60
33580;DHT22;19909;43.644;-79.438;2022-08-21T07:07:21;22.10;51.60
33580;DHT22;19909;43.644;-79.438;2022-08-21T07:09:48;22.10;51.60
33580;DHT22;19909;43.644;-79.438;2022-08-21T07:12:14;22.10;51.50
33580;DHT22;19909;43.644;-79.438;2022-08-21T07:14:40;22.10;51.50
33580;DHT22;19909;43.644;-79.438;2022-08-21T07:17:06;22.10;51.40
33580;DHT22;19909;43.644;-79.438;2022-08-21T07:19:32;22.10;51.40
33580;DHT22;19909;43.644;-79.438;2022-08-21T07:22:01;22.10;51.40
33580;DHT22;19909;43.644;-79.438;2022-08-21T07:24:28;22.10;51.30
33580;DHT22;19909;43.644;-79.438;2022-08-21T07:26:55;22.10;51.30
33580;DHT22;19909;43.644;-79.438;2022-08-21T07:29:21;22.10;51.30
33580;DHT22;19909;43.644;-79.438;2022-08-21T07:31:47;22.10;51.30
33580;DHT22;19909;43.644;-79.438;2022-08-21T07:34:14;22.10;51.30
33580;DHT22;19909;43.644;-79.438;2022-08-21T07:36:40;22.10;51.20
33580;DHT22;19909;43.644;-79.438;2022-08-21T07:39:06;22.10;51.20
33580;DHT22;19909;43.644;-79.438;2022-08-21T07:41:33;22.10;51.20
33580;DHT22;19909;43.644;-79.438;2022-08-21T07:44:01;22.10;51.10
33580;DHT22;19909;43.644;-79.438;2022-08-21T07:46:27;22.10;51.10
33580;DHT22;19909;43.644;-79.438;2022-08-21T07:48:54;22.10;51.10
33580;DHT22;19909;43.644;-79.438;2022-08-21T07:51:24;22.00;51.10
33580;DHT22;19909;43.644;-79.438;2022-08-21T07:53:52;22.10;51.10
33580;DHT22;19909;43.644;-79.438;2022-08-21T07:56:19;22.10;51.10
33580;DHT22;19909;43.644;-79.438;2022-08-21T07:58:46;22.10;51.20
33580;DHT22;19909;43.644;-79.438;2022-08-21T08:01:13;22.10;51.10
33580;DHT22;19909;43.644;-79.438;2022-08-21T08:03:40;22.10;51.10
33580;DHT22;19909;43.644;-79.438;2022-08-21T08:06:07;22.10;51.10
33580;DHT22;19909;43.644;-79.438;2022-08-21T08:08:39;22.10;51.10
33580;DHT22;19909;43.644;-79.438;2022-08-21T08:11:07;22.10;51.10
33580;DHT22;19909;43.644;-79.438;2022-08-21T08:13:39;22.10;51.10
33580;DHT22;19909;43.644;-79.438;2022-08-21T08:16:06;22.10;51.10
33580;DHT22;19909;43.644;-79.438;2022-08-21T08:18:32;22.00;51.00
33580;DHT22;19909;43.644;-79.438;2022-08-21T08:20:58;22.00;51.00
33580;DHT22;19909;43.644;-79.438;2022-08-21T08:23:25;22.00;51.00
33580;DHT22;19909;43.644;-79.438;2022-08-21T08:25:51;22.00;51.00
33580;DHT22;19909;43.644;-79.438;2022-08-21T08:28:18;22.00;50.90
33580;DHT22;19909;43.644;-79.438;2022-08-21T08:30:45;22.00;51.00
33580;DHT22;19909;43.644;-79.438;2022-08-21T08:33:12;22.00;50.90
33580;DHT22;19909;43.644;-79.438;2022-08-21T08:35:38;22.00;50.90
33580;DHT22;19909;43.644;-79.438;2022-08-21T08:38:06;22.00;50.90
33580;DHT22;19909;43.644;-79.438;2022-08-21T08:43:17;22.00;50.90
33580;DHT22;19909;43.644;-79.438;2022-08-21T08:45:47;22.00;50.90
33580;DHT22;19909;43.644;-79.438;2022-08-21T08:48:26;22.00;50.80
33580;DHT22;19909;43.644;-79.438;2022-08-21T08:51:00;22.00;50.90
33580;DHT22;19909;43.644;-79.438;2022-08-21T08:56:29;22.00;50.90
33580;DHT22;19909;43.644;-79.438;2022-08-21T09:01:45;22.00;51.00
33580;DHT22;19909;43.644;-79.438;2022-08-21T09:04:12;22.00;50.90
33580;DHT22;19909;43.644;-79.438;2022-08-21T09:07:03;22.00;50.90
33580;DHT22;19909;43.644;-79.438;2022-08-21T09:12:50;22.00;51.50
33580;DHT22;19909;43.644;-79.438;2022-08-21T09:15:33;22.00;50.90
33580;DHT22;19909;43.644;-79.438;2022-08-21T09:26:30;21.90;51.00
33580;DHT22;19909;43.644;-79.438;2022-08-21T09:28:59;21.90;51.00
33580;DHT22;19909;43.644;-79.438;2022-08-21T09:31:33;21.90;51.00
33580;DHT22;19909;43.644;-79.438;2022-08-21T09:34:08;21.90;50.90
33580;DHT22;19909;43.644;-79.438;2022-08-21T09:36:44;21.90;50.90
33580;DHT22;19909;43.644;-79.438;2022-08-21T09:39:12;21.90;50.80
33580;DHT22;19909;43.644;-79.438;2022-08-21T09:41:39;22.00;50.90
33580;DHT22;19909;43.644;-79.438;2022-08-21T09:44:08;21.90;50.90
33580;DHT22;19909;43.644;-79.438;2022-08-21T09:46:34;21.90;50.80
33580;DHT22;19909;43.644;-79.438;2022-08-21T09:49:03;21.90;50.80
33580;DHT22;19909;43.644;-79.438;2022-08-21T09:51:33;21.90;50.80
33580;DHT22;19909;43.644;-79.438;2022-08-21T09:56:36;22.00;50.80
33580;DHT22;19909;43.644;-79.438;2022-08-21T10:01:52;21.90;50.80
33580;DHT22;19909;43.644;-79.438;2022-08-21T10:04:27;21.90;50.80
33580;DHT22;19909;43.644;-79.438;2022-08-21T10:06:54;21.90;50.80
33580;DHT22;19909;43.644;-79.438;2022-08-21T10:09:21;21.90;50.80
33580;DHT22;19909;43.644;-79.438;2022-08-21T10:20:09;21.90;50.80
33580;DHT22;19909;43.644;-79.438;2022-08-21T10:23:14;21.90;50.80
33580;DHT22;19909;43.644;-79.438;2022-08-21T10:26:02;21.90;50.80
33580;DHT22;19909;43.644;-79.438;2022-08-21T10:31:21;21.90;50.80
33580;DHT22;19909;43.644;-79.438;2022-08-21T10:34:13;21.80;50.80
33580;DHT22;19909;43.644;-79.438;2022-08-21T10:39:34;21.90;50.80
33580;DHT22;19909;43.644;-79.438;2022-08-21T10:42:28;21.90;50.80
33580;DHT22;19909;43.644;-79.438;2022-08-21T10:45:15;21.80;50.70
33580;DHT22;19909;43.644;-79.438;2022-08-21T10:47:53;21.80;50.70
33580;DHT22;19909;43.644;-79.438;2022-08-21T10:55:56;21.80;50.70
33580;DHT22;19909;43.644;-79.438;2022-08-21T10:58:39;21.90;50.80
33580;DHT22;19909;43.644;-79.438;2022-08-21T11:01:19;21.80;50.80
33580;DHT22;19909;43.644;-79.438;2022-08-21T11:04:12;21.90;50.80
33580;DHT22;19909;43.644;-79.438;2022-08-21T11:06:44;21.80;50.80
33580;DHT22;19909;43.644;-79.438;2022-08-21T11:09:20;21.90;50.80
33580;DHT22;19909;43.644;-79.438;2022-08-21T11:12:24;21.90;50.80
33580;DHT22;19909;43.644;-79.438;2022-08-21T11:14:59;21.80;50.80
33580;DHT22;19909;43.644;-79.438;2022-08-21T11:17:51;21.80;50.80
33580;DHT22;19909;43.644;-79.438;2022-08-21T11:26:09;21.80;50.80
33580;DHT22;19909;43.644;-79.438;2022-08-21T11:28:43;21.80;50.80
33580;DHT22;19909;43.644;-79.438;2022-08-21T11:37:01;21.80;50.80
33580;DHT22;19909;43.644;-79.438;2022-08-21T11:39:38;21.80;50.90
33580;DHT22;19909;43.644;-79.438;2022-08-21T11:42:17;21.80;50.90
33580;DHT22;19909;43.644;-79.438;2022-08-21T11:50:45;21.80;50.90
33580;DHT22;19909;43.644;-79.438;2022-08-21T11:58:41;21.80;51.40
33580;DHT22;19909;43.644;-79.438;2022-08-21T12:01:17;21.80;50.80
33580;DHT22;19909;43.644;-79.438;2022-08-21T12:04:17;21.80;50.90
33580;DHT22;19909;43.644;-79.438;2022-08-21T12:06:44;21.80;50.80
33580;DHT22;19909;43.644;-79.438;2022-08-21T12:09:33;21.80;50.80
33580;DHT22;19909;43.644;-79.438;2022-08-21T12:12:12;21.80;50.80
33580;DHT22;19909;43.644;-79.438;2022-08-21T12:14:45;21.80;50.80
33580;DHT22;19909;43.644;-79.438;2022-08-21T12:17:36;21.80;50.80
33580;DHT22;19909;43.644;-79.438;2022-08-21T12:20:23;21.80;50.80
33580;DHT22;19909;43.644;-79.438;2022-08-21T12:23:16;21.80;50.80
33580;DHT22;19909;43.644;-79.438;2022-08-21T12:26:23;21.80;50.80
33580;DHT22;19909;43.644;-79.438;2022-08-21T12:28:50;21.80;50.80
33580;DHT22;19909;43.644;-79.438;2022-08-21T12:31:25;21.80;50.80
33580;DHT22;19909;43.644;-79.438;2022-08-21T12:33:59;21.80;50.80
33580;DHT22;19909;43.644;-79.438;2022-08-21T12:39:14;21.80;50.70
33580;DHT22;19909;43.644;-79.438;2022-08-21T12:42:03;21.80;50.80
33580;DHT22;19909;43.644;-79.438;2022-08-21T12:44:40;21.80;50.80
33580;DHT22;19909;43.644;-79.438;2022-08-21T12:47:24;21.80;50.70
33580;DHT22;19909;43.644;-79.438;2022-08-21T12:50:13;21.80;50.70
33580;DHT22;19909;43.644;-79.438;2022-08-21T12:53:06;21.80;51.30
33580;DHT22;19909;43.644;-79.438;2022-08-21T12:55:34;21.70;50.70
33580;DHT22;19909;43.644;-79.438;2022-08-21T12:58:00;21.80;50.80
33580;DHT22;19909;43.644;-79.438;2022-08-21T13:00:28;21.80;50.80
33580;DHT22;19909;43.644;-79.438;2022-08-21T13:02:56;21.70;50.70
33580;DHT22;19909;43.644;-79.438;2022-08-21T13:05:36;21.80;50.80
33580;DHT22;19909;43.644;-79.438;2022-08-21T13:08:07;21.80;50.80
33580;DHT22;19909;43.644;-79.438;2022-08-21T13:10:36;21.80;50.80
33580;DHT22;19909;43.644;-79.438;2022-08-21T13:13:12;21.80;50.70
33580;DHT22;19909;43.644;-79.438;2022-08-21T13:15:42;21.80;50.70
33580;DHT22;19909;43.644;-79.438;2022-08-21T13:18:23;21.80;50.70
33580;DHT22;19909;43.644;-79.438;2022-08-21T13:20:50;21.80;50.70
33580;DHT22;19909;43.644;-79.438;2022-08-21T13:23:28;21.80;50.70
33580;DHT22;19909;43.644;-79.438;2022-08-21T13:25:55;21.80;50.70
33580;DHT22;19909;43.644;-79.438;2022-08-21T13:28:23;21.80;50.70
33580;DHT22;19909;43.644;-79.438;2022-08-21T13:30:54;21.80;50.70
33580;DHT22;19909;43.644;-79.438;2022-08-21T13:33:24;21.80;50.70
33580;DHT22;19909;43.644;-79.438;2022-08-21T13:36:07;21.80;50.70
33580;DHT22;19909;43.644;-79.438;2022-08-21T13:38:36;21.80;50.70
33580;DHT22;19909;43.644;-79.438;2022-08-21T13:44:01;21.70;50.70
33580;DHT22;19909;43.644;-79.438;2022-08-21T13:46:32;21.70;50.60
33580;DHT22;19909;43.644;-79.438;2022-08-21T13:49:00;21.70;50.60
33580;DHT22;19909;43.644;-79.438;2022-08-21T13:51:28;21.80;50.70
33580;DHT22;19909;43.644;-79.438;2022-08-21T13:53:54;21.80;50.70
33580;DHT22;19909;43.644;-79.438;2022-08-21T13:56:31;21.80;50.70
33580;DHT22;19909;43.644;-79.438;2022-08-21T13:59:00;21.80;50.70
33580;DHT22;19909;43.644;-79.438;2022-08-21T14:01:32;21.70;50.60
33580;DHT22;19909;43.644;-79.438;2022-08-21T14:04:31;21.80;50.70
33580;DHT22;19909;43.644;-79.438;2022-08-21T14:07:02;21.80;50.60
33580;DHT22;19909;43.644;-79.438;2022-08-21T14:09:44;21.70;50.60
33580;DHT22;19909;43.644;-79.438;2022-08-21T14:12:17;21.70;50.70
33580;DHT22;19909;43.644;-79.438;2022-08-21T14:14:44;21.80;50.70
33580;DHT22;19909;43.644;-79.438;2022-08-21T14:17:14;21.80;50.70
33580;DHT22;19909;43.644;-79.438;2022-08-21T14:19:51;21.80;50.60
33580;DHT22;19909;43.644;-79.438;2022-08-21T14:25:28;21.80;50.70
33580;DHT22;19909;43.644;-79.438;2022-08-21T14:30:42;21.70;50.60
33580;DHT22;19909;43.644;-79.438;2022-08-21T14:33:12;21.70;50.60
33580;DHT22;19909;43.644;-79.438;2022-08-21T14:35:39;21.70;50.60
33580;DHT22;19909;43.644;-79.438;2022-08-21T14:38:21;21.80;50.60
33580;DHT22;19909;43.644;-79.438;2022-08-21T14:40:52;21.70;50.60
33580;DHT22;19909;43.644;-79.438;2022-08-21T14:43:20;21.80;50.60
33580;DHT22;19909;43.644;-79.438;2022-08-21T14:45:46;21.70;50.60
33580;DHT22;19909;43.644;-79.438;2022-08-21T14:48:13;21.70;50.60
33580;DHT22;19909;43.644;-79.438;2022-08-21T14:50:39;21.80;50.60
33580;DHT22;19909;43.644;-79.438;2022-08-21T14:53:06;21.70;50.60
33580;DHT22;19909;43.644;-79.438;2022-08-21T14:55:32;21.80;50.60
33580;DHT22;19909;43.644;-79.438;2022-08-21T14:58:22;21.80;50.60
33580;DHT22;19909;43.644;-79.438;2022-08-21T15:00:50;21.80;50.70
33580;DHT22;19909;43.644;-79.438;2022-08-21T15:03:18;21.70;50.60
33580;DHT22;19909;43.644;-79.438;2022-08-21T15:05:45;21.70;50.60
33580;DHT22;19909;43.644;-79.438;2022-08-21T15:08:11;21.80;50.60
33580;DHT22;19909;43.644;-79.438;2022-08-21T15:10:37;21.70;50.60
33580;DHT22;19909;43.644;-79.438;2022-08-21T15:13:04;21.70;50.60
33580;DHT22;19909;43.644;-79.438;2022-08-21T15:15:36;21.80;50.60
33580;DHT22;19909;43.644;-79.438;2022-08-21T15:18:04;21.80;50.60
33580;DHT22;19909;43.644;-79.438;2022-08-21T15:20:30;21.70;50.50
33580;DHT22;19909;43.644;-79.438;2022-08-21T15:22:57;21.70;50.60
33580;DHT22;19909;43.644;-79.438;2022-08-21T15:25:23;21.80;50.60
33580;DHT22;19909;43.644;-79.438;2022-08-21T15:27:49;21.80;50.60
33580;DHT22;19909;43.644;-79.438;2022-08-21T15:30:15;21.70;50.60
33580;DHT22;19909;43.644;-79.438;2022-08-21T15:32:42;21.70;50.60
33580;DHT22;19909;43.644;-79.438;2022-08-21T15:35:08;21.70;51.10
33580;DHT22;19909;43.644;-79.438;2022-08-21T15:37:35;21.80;50.60
33580;DHT22;19909;43.644;-79.438;2022-08-21T15:40:02;21.80;50.60
33580;DHT22;19909;43.644;-79.438;2022-08-21T15:42:29;21.80;50.50
33580;DHT22;19909;43.644;-79.438;2022-08-21T15:44:56;21.80;50.50
33580;DHT22;19909;43.644;-79.438;2022-08-21T15:47:31;21.80;50.50
33580;DHT22;19909;43.644;-79.438;2022-08-21T15:49:59;21.70;50.50
33580;DHT22;19909;43.644;-79.438;2022-08-21T15:52:25;21.80;50.50
33580;DHT22;19909;43.644;-79.438;2022-08-21T15:54:52;21.70;50.50
33580;DHT22;19909;43.644;-79.438;2022-08-21T15:57:21;21.70;50.50
33580;DHT22;19909;43.644;-79.438;2022-08-21T15:59:52;21.70;50.50
33580;DHT22;19909;43.644;-79.438;2022-08-21T16:02:23;21.70;50.50
33580;DHT22;19909;43.644;-79.438;2022-08-21T16:04:50;21.80;50.60
33580;DHT22;19909;43.644;-79.438;2022-08-21T16:07:16;21.70;50.50
33580;DHT22;19909;43.644;-79.438;2022-08-21T16:09:43;21.70;50.60
33580;DHT22;19909;43.644;-79.438;2022-08-21T16:12:11;21.80;50.50
33580;DHT22;19909;43.644;-79.438;2022-08-21T16:14:40;21.70;50.50
33580;DHT22;19909;43.644;-79.438;2022-08-21T16:17:07;21.70;50.50
33580;DHT22;19909;43.644;-79.438;2022-08-21T16:19:34;21.80;50.50
33580;DHT22;19909;43.644;-79.438;2022-08-21T16:22:00;21.70;50.50
33580;DHT22;19909;43.644;-79.438;2022-08-21T16:24:27;21.70;50.50
33580;DHT22;19909;43.644;-79.438;2022-08-21T16:26:54;21.80;50.50
33580;DHT22;19909;43.644;-79.438;2022-08-21T16:29:21;21.70;50.50
33580;DHT22;19909;43.644;-79.438;2022-08-21T16:31:52;21.70;50.50
33580;DHT22;19909;43.644;-79.438;2022-08-21T16:34:18;21.80;50.50
33580;DHT22;19909;43.644;-79.438;2022-08-21T16:36:45;21.80;50.50
33580;DHT22;19909;43.644;-79.438;2022-08-21T16:39:13;21.80;50.40
33580;DHT22;19909;43.644;-79.438;2022-08-21T16:41:39;21.80;50.40
33580;DHT22;19909;43.644;-79.438;2022-08-21T16:44:06;21.80;50.40